createdAt,value
2019-02-06T00:00:44.099Z,18.33
2019-02-06T00:03:16.694Z,18.57
2019-02-06T00:05:45.791Z,17.50
2019-02-06T00:08:14.818Z,16.90
2019-02-06T00:10:43.795Z,18.50
2019-02-06T00:13:12.873Z,17.93
2019-02-06T00:15:41.802Z,17.13
2019-02-06T00:18:11.178Z,17.00
2019-02-06T00:20:42.903Z,17.33
2019-02-06T00:23:11.935Z,16.00
2019-02-06T00:25:40.906Z,17.30
2019-02-06T00:28:09.874Z,16.53
2019-02-06T00:30:38.975Z,15.63
2019-02-06T00:33:08.394Z,15.90
2019-02-06T00:35:37.189Z,15.50
2019-02-06T00:38:06.108Z,15.93
2019-02-06T00:40:34.974Z,16.50
2019-02-06T00:43:04.870Z,14.77
2019-02-06T00:45:33.787Z,15.10
2019-02-06T00:48:02.905Z,14.87
2019-02-06T00:50:31.714Z,15.43
2019-02-06T00:53:00.647Z,14.60
2019-02-06T00:55:29.470Z,14.80
2019-02-06T00:57:58.413Z,14.37
2019-02-06T01:00:27.354Z,14.73
2019-02-06T01:02:56.528Z,12.23
2019-02-06T01:05:37.476Z,13.33
2019-02-06T01:07:56.151Z,12.20
2019-02-06T01:10:25.047Z,13.23
2019-02-06T01:12:53.951Z,12.70
2019-02-06T01:15:22.915Z,11.10
2019-02-06T01:17:51.824Z,12.60
2019-02-06T01:20:20.844Z,11.80
2019-02-06T01:22:49.760Z,10.60
2019-02-06T01:25:18.734Z,12.73
2019-02-06T01:27:47.741Z,13.97
2019-02-06T01:30:19.745Z,12.20
2019-02-06T01:32:48.645Z,12.03
2019-02-06T01:35:18.011Z,11.13
2019-02-06T01:37:46.991Z,11.80
2019-02-06T01:40:17.223Z,11.80
2019-02-06T01:42:46.240Z,11.17
2019-02-06T01:45:16.869Z,10.63
2019-02-06T01:47:45.876Z,11.50
2019-02-06T01:50:17.410Z,11.87
2019-02-06T01:52:46.361Z,12.67
2019-02-06T01:55:15.607Z,12.43
2019-02-06T01:57:44.523Z,10.83
2019-02-06T02:00:18.392Z,11.20
2019-02-06T02:02:47.362Z,12.40
2019-02-06T02:05:19.126Z,11.30
2019-02-06T02:07:48.590Z,11.00
2019-02-06T02:10:18.106Z,11.13
2019-02-06T02:12:47.215Z,11.73
2019-02-06T02:15:16.579Z,11.23
2019-02-06T02:17:45.626Z,11.90
2019-02-06T02:20:19.686Z,10.90
2019-02-06T02:22:48.706Z,10.87
2019-02-06T02:25:17.667Z,12.50
2019-02-06T02:27:46.639Z,11.70
2019-02-06T02:30:19.046Z,10.27
2019-02-06T02:32:48.328Z,11.93
2019-02-06T02:35:17.274Z,11.00
2019-02-06T02:37:46.315Z,11.10
2019-02-06T02:40:15.307Z,12.70
2019-02-06T02:42:44.223Z,10.60
2019-02-06T02:45:14.743Z,10.90
2019-02-06T02:47:43.930Z,11.57
2019-02-06T02:50:13.154Z,11.70
2019-02-06T02:52:42.054Z,11.43
2019-02-06T02:55:11.137Z,10.87
2019-02-06T02:57:40.211Z,12.73
2019-02-06T03:00:15.188Z,11.60
2019-02-06T03:03:03.840Z,11.30
2019-02-06T03:05:34.719Z,12.23
2019-02-06T03:08:03.694Z,12.90
2019-02-06T03:10:32.630Z,12.83
2019-02-06T03:13:01.774Z,11.37
2019-02-06T03:15:30.783Z,12.50
2019-02-06T03:17:59.766Z,11.47
2019-02-06T03:20:28.596Z,13.07
2019-02-06T03:22:57.479Z,13.43
2019-02-06T03:25:26.448Z,14.13
2019-02-06T03:27:55.387Z,12.57
2019-02-06T03:30:24.213Z,12.80
2019-02-06T03:32:53.035Z,14.10
2019-02-06T03:35:22.000Z,13.70
2019-02-06T03:37:51.076Z,14.40
2019-02-06T03:40:20.042Z,13.93
2019-02-06T03:42:49.080Z,14.40
2019-02-06T03:45:18.427Z,14.40
2019-02-06T03:47:47.247Z,13.97
2019-02-06T03:50:16.922Z,14.40
2019-02-06T03:52:45.825Z,13.77
2019-02-06T03:55:14.775Z,14.53
2019-02-06T03:57:43.656Z,14.87
2019-02-06T04:00:14.347Z,15.83
2019-02-06T04:02:43.235Z,14.70
2019-02-06T04:05:12.236Z,14.77
2019-02-06T04:07:41.207Z,15.10
2019-02-06T04:10:11.971Z,15.90
2019-02-06T04:12:40.846Z,15.97
2019-02-06T04:15:10.163Z,15.37
2019-02-06T04:17:39.108Z,14.03
2019-02-06T04:20:09.227Z,15.73
2019-02-06T04:22:38.045Z,16.40
2019-02-06T04:25:07.132Z,16.83
2019-02-06T04:27:35.967Z,15.53
2019-02-06T04:30:06.663Z,16.13
2019-02-06T04:32:35.638Z,17.63
2019-02-06T04:35:05.579Z,17.20
2019-02-06T04:37:34.379Z,16.33
2019-02-06T04:40:03.344Z,17.63
2019-02-06T04:42:32.170Z,18.30
2019-02-06T04:45:01.030Z,18.17
2019-02-06T04:47:29.841Z,19.20
2019-02-06T04:49:58.708Z,16.47
2019-02-06T04:52:27.563Z,16.63
2019-02-06T04:54:56.447Z,17.77
2019-02-06T04:57:25.336Z,17.13
2019-02-06T04:59:54.228Z,18.90
2019-02-06T05:02:23.517Z,18.27
2019-02-06T05:04:52.408Z,19.33
2019-02-06T05:07:21.236Z,17.27
2019-02-06T05:09:50.109Z,16.63
2019-02-06T05:12:18.975Z,17.40
2019-02-06T05:14:47.778Z,17.70
2019-02-06T05:17:16.595Z,16.77
2019-02-06T05:19:45.581Z,18.17
2019-02-06T05:22:14.488Z,17.17
2019-02-06T05:24:43.368Z,20.50
2019-02-06T05:27:12.171Z,18.67
2019-02-06T05:29:41.001Z,17.30
2019-02-06T05:32:10.119Z,19.07
2019-02-06T05:34:39.394Z,17.77
2019-02-06T05:37:08.475Z,18.77
2019-02-06T05:39:37.282Z,18.03
2019-02-06T05:42:06.285Z,18.00
2019-02-06T05:44:35.325Z,19.07
2019-02-06T05:47:04.268Z,18.57
2019-02-06T05:49:33.194Z,17.13
2019-02-06T05:52:02.294Z,19.33
2019-02-06T05:54:31.286Z,19.40
2019-02-06T05:57:00.277Z,18.90
2019-02-06T05:59:29.202Z,19.37
2019-02-06T06:01:58.098Z,21.50
2019-02-06T06:04:26.946Z,19.03
2019-02-06T06:06:55.842Z,19.87
2019-02-06T06:09:24.852Z,18.20
2019-02-06T06:11:53.806Z,20.87
2019-02-06T06:14:22.683Z,18.90
2019-02-06T06:16:51.607Z,20.60
2019-02-06T06:19:20.422Z,20.47
2019-02-06T06:21:49.347Z,19.40
2019-02-06T06:24:18.547Z,20.20
2019-02-06T06:26:47.465Z,19.60
2019-02-06T06:29:16.282Z,21.30
2019-02-06T06:31:45.274Z,20.10
2019-02-06T06:34:14.119Z,20.47
2019-02-06T06:36:42.958Z,19.63
2019-02-06T06:39:12.104Z,20.83
2019-02-06T06:41:41.043Z,20.80
2019-02-06T06:44:09.924Z,20.40
2019-02-06T06:46:38.741Z,19.10
2019-02-06T06:49:07.743Z,21.63
2019-02-06T06:51:36.734Z,20.40
2019-02-06T06:54:05.745Z,22.50
2019-02-06T06:56:34.834Z,21.20
2019-02-06T06:59:03.944Z,20.37
2019-02-06T07:01:32.907Z,22.30
2019-02-06T07:04:01.883Z,22.00
2019-02-06T07:06:30.867Z,20.40
2019-02-06T07:08:59.709Z,22.13
2019-02-06T07:11:28.829Z,22.50
2019-02-06T07:13:57.751Z,22.23
2019-02-06T07:16:26.647Z,23.30
2019-02-06T07:18:55.490Z,22.27
2019-02-06T07:21:24.400Z,22.30
2019-02-06T07:23:53.234Z,22.90
2019-02-06T07:26:22.213Z,21.90
2019-02-06T07:28:51.206Z,23.63
2019-02-06T07:31:20.019Z,22.13
2019-02-06T07:33:48.925Z,22.97
2019-02-06T07:36:17.954Z,23.70
2019-02-06T07:38:46.807Z,24.13
2019-02-06T07:41:15.641Z,25.20
2019-02-06T07:43:44.857Z,25.47
2019-02-06T07:46:13.864Z,21.47
2019-02-06T07:48:43.020Z,25.03
2019-02-06T07:51:11.928Z,24.63
2019-02-06T07:53:40.834Z,22.17
2019-02-06T07:56:09.796Z,24.03
2019-02-06T07:58:38.643Z,25.33
2019-02-06T08:01:07.690Z,24.73
2019-02-06T08:03:36.637Z,22.93
2019-02-06T08:06:05.590Z,23.90
2019-02-06T08:08:36.402Z,25.27
2019-02-06T08:11:05.325Z,22.83
2019-02-06T08:13:34.227Z,22.10
2019-02-06T08:16:03.215Z,24.50
2019-02-06T08:18:32.134Z,22.83
2019-02-06T08:21:01.260Z,25.17
2019-02-06T08:23:30.267Z,24.07
2019-02-06T08:25:59.234Z,21.00
2019-02-06T08:28:28.467Z,24.60
2019-02-06T08:30:57.943Z,23.90
2019-02-06T08:33:26.919Z,23.73
2019-02-06T08:35:55.814Z,23.10
2019-02-06T08:38:24.722Z,23.83
2019-02-06T08:40:53.638Z,22.63
2019-02-06T08:43:22.627Z,24.33
2019-02-06T08:45:51.957Z,22.70
2019-02-06T08:48:20.787Z,22.40
2019-02-06T08:50:49.798Z,23.47
2019-02-06T08:53:18.637Z,21.13
2019-02-06T08:55:47.619Z,21.87
2019-02-06T08:58:16.652Z,23.27
2019-02-06T09:00:45.576Z,23.80
2019-02-06T09:03:14.626Z,22.40
2019-02-06T09:05:43.686Z,22.90
2019-02-06T09:08:12.659Z,21.23
2019-02-06T09:10:41.491Z,21.93
2019-02-06T09:13:10.599Z,21.80
2019-02-06T09:15:39.595Z,21.37
2019-02-06T09:18:08.848Z,22.97
2019-02-06T09:20:37.841Z,20.83
2019-02-06T09:23:06.753Z,22.23
2019-02-06T09:25:35.808Z,22.30
2019-02-06T09:28:04.893Z,21.60
2019-02-06T09:30:34.352Z,20.50
2019-02-06T09:33:03.894Z,21.67
2019-02-06T09:35:32.882Z,20.53
2019-02-06T09:38:01.876Z,20.37
2019-02-06T09:40:31.411Z,20.10
2019-02-06T09:43:00.390Z,20.10
2019-02-06T09:45:29.607Z,20.80
2019-02-06T09:47:58.748Z,19.70
2019-02-06T09:50:30.003Z,20.23
2019-02-06T09:52:58.998Z,19.53
2019-02-06T09:55:28.143Z,20.37
2019-02-06T09:57:57.186Z,18.33
2019-02-06T10:00:27.947Z,20.90
2019-02-06T10:02:57.012Z,20.57
2019-02-06T10:05:25.934Z,17.33
2019-02-06T10:07:54.904Z,18.50
2019-02-06T10:10:24.462Z,17.60
2019-02-06T10:12:53.467Z,15.80
2019-02-06T10:15:24.703Z,17.60
2019-02-06T10:17:54.038Z,17.27
2019-02-06T10:20:24.812Z,16.47
2019-02-06T10:22:53.857Z,15.57
2019-02-06T10:25:22.848Z,15.20
2019-02-06T10:27:51.861Z,15.00
2019-02-06T10:30:27.485Z,15.37
2019-02-06T10:32:56.752Z,14.30
2019-02-06T10:35:25.873Z,15.77
2019-02-06T10:37:54.857Z,14.67
2019-02-06T10:40:24.020Z,13.93
2019-02-06T10:42:52.967Z,14.17
2019-02-06T10:45:22.039Z,13.00
2019-02-06T10:47:51.085Z,14.50
2019-02-06T10:50:21.971Z,14.13
2019-02-06T10:52:50.967Z,12.90
2019-02-06T10:55:20.139Z,12.60
2019-02-06T10:57:49.166Z,13.77
2019-02-06T11:00:47.702Z,12.80
2019-02-06T11:03:16.759Z,11.27
2019-02-06T11:05:45.810Z,11.70
2019-02-06T11:08:14.705Z,12.73
2019-02-06T11:10:43.665Z,11.20
2019-02-06T11:13:12.665Z,12.57
2019-02-06T11:15:41.769Z,12.53
2019-02-06T11:18:10.823Z,11.57
2019-02-06T11:20:39.935Z,11.53
2019-02-06T11:23:09.126Z,11.50
2019-02-06T11:25:38.115Z,10.77
2019-02-06T11:28:08.132Z,11.67
2019-02-06T11:30:37.534Z,11.80
2019-02-06T11:33:06.729Z,11.03
2019-02-06T11:35:35.996Z,11.20
2019-02-06T11:38:05.890Z,10.17
2019-02-06T11:40:34.983Z,11.23
2019-02-06T11:43:04.244Z,11.83
2019-02-06T11:45:33.610Z,11.53
2019-02-06T11:48:02.571Z,11.50
2019-02-06T11:50:42.389Z,11.40
2019-02-06T11:53:16.794Z,9.70
2019-02-06T11:55:45.705Z,11.30
2019-02-06T11:58:14.662Z,10.90
2019-02-06T12:00:48.643Z,10.90
2019-02-06T12:03:17.852Z,11.00
2019-02-06T12:05:47.035Z,9.90
2019-02-06T12:08:16.104Z,10.53
2019-02-06T12:10:45.442Z,10.10
2019-02-06T12:13:14.537Z,10.30
2019-02-06T12:15:43.598Z,10.10
2019-02-06T12:18:12.570Z,10.30
2019-02-06T12:20:41.478Z,10.43
2019-02-06T12:23:10.299Z,10.97
2019-02-06T12:25:39.198Z,10.23
2019-02-06T12:28:08.548Z,10.13
2019-02-06T12:30:37.634Z,9.97
2019-02-06T12:33:06.787Z,10.20
2019-02-06T12:35:35.887Z,8.80
2019-02-06T12:38:05.033Z,10.20
2019-02-06T12:40:34.006Z,9.20
2019-02-06T12:43:03.074Z,10.37
2019-02-06T12:45:32.369Z,10.33
2019-02-06T12:48:01.290Z,10.13
2019-02-06T12:50:30.341Z,10.50
2019-02-06T12:52:59.298Z,10.17
2019-02-06T12:55:30.835Z,10.87
2019-02-06T12:57:59.848Z,10.20
2019-02-06T13:00:30.682Z,10.47
2019-02-06T13:03:00.255Z,10.17
2019-02-06T13:05:30.103Z,8.87
2019-02-06T13:07:58.996Z,10.60
2019-02-06T13:10:33.936Z,9.33
2019-02-06T13:12:58.838Z,10.53
2019-02-06T13:15:27.775Z,9.80
2019-02-06T13:17:57.005Z,10.10
2019-02-06T13:20:27.707Z,9.70
2019-02-06T13:22:56.753Z,9.33
2019-02-06T13:25:25.708Z,9.23
2019-02-06T13:27:54.702Z,9.33
2019-02-06T13:30:31.253Z,8.13
2019-02-06T13:33:00.266Z,11.10
2019-02-06T13:35:29.226Z,8.70
2019-02-06T13:37:58.194Z,8.30
2019-02-06T13:40:28.142Z,7.93
2019-02-06T13:42:57.355Z,8.23
2019-02-06T13:45:46.646Z,8.90
2019-02-06T13:48:15.526Z,8.37
2019-02-06T13:50:44.557Z,8.30
2019-02-06T13:53:13.475Z,7.40
2019-02-06T13:55:42.358Z,8.60
2019-02-06T13:58:19.696Z,8.57
2019-02-06T14:00:42.119Z,9.30
2019-02-06T14:03:11.173Z,9.27
2019-02-06T14:05:40.687Z,8.07
2019-02-06T14:08:12.115Z,8.20
2019-02-06T14:10:41.058Z,8.07
2019-02-06T14:13:10.235Z,9.40
2019-02-06T14:15:40.583Z,8.03
2019-02-06T14:18:09.892Z,8.20
2019-02-06T14:20:39.166Z,9.50
2019-02-06T14:23:19.651Z,9.00
2019-02-06T14:26:14.041Z,8.50
2019-02-06T14:29:34.046Z,7.47
2019-02-06T14:32:30.311Z,8.50
2019-02-06T14:35:24.541Z,8.47
2019-02-06T14:38:52.723Z,8.60
2019-02-06T14:41:59.620Z,8.10
2019-02-06T14:45:11.815Z,9.13
2019-02-06T14:48:06.535Z,9.50
2019-02-06T14:51:03.420Z,8.07
2019-02-06T14:54:19.407Z,9.17
2019-02-06T14:57:18.604Z,8.93
2019-02-06T15:00:15.083Z,9.03
2019-02-06T15:03:18.149Z,9.87
2019-02-06T15:06:29.166Z,8.97
2019-02-06T15:09:41.009Z,10.40
2019-02-06T15:12:56.293Z,10.00
2019-02-06T15:15:51.398Z,11.37
2019-02-06T15:18:40.647Z,9.40
2019-02-06T15:21:47.177Z,11.60
2019-02-06T15:24:46.408Z,10.40
2019-02-06T15:27:45.115Z,11.47
2019-02-06T15:30:39.240Z,10.93
2019-02-06T15:33:31.200Z,13.20
2019-02-06T15:36:22.267Z,11.60
2019-02-06T15:39:31.278Z,11.00
2019-02-06T15:42:09.034Z,12.93
2019-02-06T15:45:03.415Z,11.80
2019-02-06T15:47:50.750Z,10.17
2019-02-06T15:50:50.375Z,11.47
2019-02-06T15:53:51.235Z,12.20
2019-02-06T15:56:57.363Z,11.43
2019-02-06T16:00:13.973Z,11.33
2019-02-06T16:03:07.802Z,11.57
2019-02-06T16:06:30.441Z,11.50
2019-02-06T16:09:36.019Z,12.37
2019-02-06T16:12:22.560Z,11.30
2019-02-06T16:15:05.053Z,11.93
2019-02-06T16:18:00.163Z,12.90
2019-02-06T16:21:07.753Z,12.20
2019-02-06T16:24:18.058Z,13.30
2019-02-06T16:27:16.559Z,12.63
2019-02-06T16:30:27.482Z,12.90
2019-02-06T16:33:24.333Z,12.23
2019-02-06T16:36:43.156Z,13.50
2019-02-06T16:39:50.688Z,13.00
2019-02-06T16:42:43.859Z,14.50
2019-02-06T16:45:25.278Z,12.70
2019-02-06T16:48:44.615Z,12.40
2019-02-06T16:51:36.717Z,14.70
2019-02-06T16:54:52.859Z,14.50
2019-02-06T16:57:58.767Z,12.43
2019-02-06T17:00:57.167Z,13.90
2019-02-06T17:03:49.602Z,14.60
2019-02-06T17:06:31.947Z,12.40
2019-02-06T17:09:36.435Z,14.00
2019-02-06T17:12:35.492Z,13.90
2019-02-06T17:15:41.460Z,15.40
2019-02-06T17:19:02.290Z,14.77
2019-02-06T17:22:19.391Z,14.30
2019-02-06T17:25:31.000Z,14.17
2019-02-06T17:28:34.350Z,15.23
2019-02-06T17:31:41.979Z,16.73
2019-02-06T17:34:58.399Z,15.20
2019-02-06T17:37:58.019Z,15.70
2019-02-06T17:41:06.787Z,14.27
2019-02-06T17:44:15.906Z,16.53
2019-02-06T17:47:20.296Z,15.83
2019-02-06T17:50:39.147Z,17.97
2019-02-06T17:53:35.086Z,18.07
2019-02-06T17:56:04.721Z,17.07
2019-02-06T17:58:40.308Z,19.13
2019-02-06T18:01:22.612Z,19.70
2019-02-06T18:03:58.299Z,17.57
2019-02-06T18:06:27.295Z,19.27
2019-02-06T18:08:57.135Z,17.80
2019-02-06T18:11:26.209Z,19.23
2019-02-06T18:13:55.175Z,15.87
2019-02-06T18:16:24.878Z,16.73
2019-02-06T18:18:53.994Z,16.77
2019-02-06T18:21:22.980Z,17.37
2019-02-06T18:23:51.971Z,19.40
2019-02-06T18:26:21.039Z,19.57
2019-02-06T18:28:50.329Z,18.90
2019-02-06T18:31:19.295Z,18.83
2019-02-06T18:33:48.218Z,17.23
2019-02-06T18:36:17.227Z,18.40
2019-02-06T18:38:47.088Z,18.30
2019-02-06T18:41:16.120Z,18.63
2019-02-06T18:43:45.043Z,17.43
2019-02-06T18:46:14.308Z,17.50
2019-02-06T18:48:43.343Z,16.43
2019-02-06T18:51:12.330Z,17.97
2019-02-06T18:53:41.300Z,17.07
2019-02-06T18:56:10.293Z,18.07
2019-02-06T18:58:39.264Z,18.00
2019-02-06T19:01:08.342Z,16.37
2019-02-06T19:03:40.464Z,17.63
2019-02-06T19:06:09.864Z,16.30
2019-02-06T19:08:40.114Z,17.27
2019-02-06T19:11:09.217Z,17.67
2019-02-06T19:13:38.282Z,17.63
2019-02-06T19:16:07.315Z,17.47
2019-02-06T19:18:37.272Z,16.97
2019-02-06T19:21:06.691Z,17.30
2019-02-06T19:23:36.042Z,17.40
2019-02-06T19:26:05.148Z,17.00
2019-02-06T19:28:33.959Z,17.97
2019-02-06T19:31:02.937Z,19.80
2019-02-06T19:33:31.963Z,18.57
2019-02-06T19:36:00.902Z,17.20
2019-02-06T19:38:29.905Z,15.63
2019-02-06T19:40:59.099Z,18.23
2019-02-06T19:43:28.145Z,17.07
2019-02-06T19:45:57.083Z,20.20
2019-02-06T19:48:25.971Z,18.97
2019-02-06T19:50:55.053Z,19.50
2019-02-06T19:53:24.051Z,19.67
2019-02-06T19:55:52.963Z,17.43
2019-02-06T19:58:21.820Z,18.97
2019-02-06T20:00:50.673Z,20.37
2019-02-06T20:03:19.709Z,19.40
2019-02-06T20:05:49.011Z,19.83
2019-02-06T20:08:18.083Z,21.87
2019-02-06T20:10:48.297Z,19.47
2019-02-06T20:13:17.371Z,20.53
2019-02-06T20:15:46.238Z,20.50
2019-02-06T20:18:15.440Z,20.90
2019-02-06T20:20:44.323Z,19.03
2019-02-06T20:23:13.334Z,18.33
2019-02-06T20:25:42.518Z,19.77
2019-02-06T20:28:11.379Z,20.43
2019-02-06T20:30:40.280Z,20.30
2019-02-06T20:33:09.239Z,22.50
2019-02-06T20:35:38.443Z,19.43
2019-02-06T20:38:07.365Z,19.03
2019-02-06T20:40:37.125Z,19.80
2019-02-06T20:43:06.267Z,20.40
2019-02-06T20:45:35.315Z,20.50
2019-02-06T20:48:04.626Z,20.00
2019-02-06T20:50:33.926Z,19.27
2019-02-06T20:53:03.800Z,21.13
2019-02-06T20:55:33.359Z,19.10
2019-02-06T20:58:02.706Z,22.47
2019-02-06T21:00:33.869Z,21.50
2019-02-06T21:03:03.219Z,21.70
2019-02-06T21:05:32.347Z,20.67
2019-02-06T21:08:01.702Z,19.20
2019-02-06T21:10:31.202Z,19.00
2019-02-06T21:13:00.326Z,19.83
2019-02-06T21:15:29.609Z,20.80
2019-02-06T21:17:58.639Z,20.03
2019-02-06T21:20:27.590Z,20.50
2019-02-06T21:22:56.509Z,22.90
2019-02-06T21:25:25.572Z,22.67
2019-02-06T21:27:54.553Z,20.53
2019-02-06T21:30:34.127Z,20.10
2019-02-06T21:33:03.101Z,22.90
2019-02-06T21:35:32.089Z,19.10
2019-02-06T21:38:01.219Z,19.93
2019-02-06T21:40:32.030Z,21.63
2019-02-06T21:43:01.059Z,22.30
2019-02-06T21:45:30.004Z,21.73
2019-02-06T21:47:58.869Z,21.90
2019-02-06T21:50:28.018Z,21.30
2019-02-06T21:52:57.303Z,22.03
2019-02-06T21:55:26.218Z,20.57
2019-02-06T21:57:55.228Z,20.63
2019-02-06T22:00:26.282Z,20.80
2019-02-06T22:02:55.387Z,21.07
2019-02-06T22:05:24.458Z,21.23
2019-02-06T22:07:53.903Z,22.10
2019-02-06T22:10:23.029Z,21.10
2019-02-06T22:12:52.170Z,21.23
2019-02-06T22:15:23.167Z,23.07
2019-02-06T22:17:52.194Z,21.30
2019-02-06T22:20:21.186Z,21.00
2019-02-06T22:22:50.172Z,19.60
2019-02-06T22:25:19.448Z,19.90
2019-02-06T22:27:50.559Z,21.13
2019-02-06T22:30:21.170Z,21.10
2019-02-06T22:32:50.951Z,19.80
2019-02-06T22:35:20.032Z,22.27
2019-02-06T22:37:49.100Z,23.07
2019-02-06T22:40:19.522Z,21.50
2019-02-06T22:42:48.539Z,22.27
2019-02-06T22:45:19.157Z,23.10
2019-02-06T22:47:48.244Z,22.87
2019-02-06T22:50:19.110Z,22.77
2019-02-06T22:52:48.108Z,20.30
2019-02-06T22:55:17.179Z,20.67
2019-02-06T22:57:46.108Z,21.50
2019-02-06T23:00:46.471Z,22.30
2019-02-06T23:03:18.040Z,24.30
2019-02-06T23:05:47.083Z,25.40
2019-02-06T23:08:16.001Z,23.43
2019-02-06T23:10:45.095Z,24.80
2019-02-06T23:13:14.149Z,20.00
2019-02-06T23:15:43.151Z,21.43
2019-02-06T23:18:12.359Z,23.47
2019-02-06T23:20:41.365Z,23.47
2019-02-06T23:23:10.418Z,23.30
2019-02-06T23:25:39.384Z,23.30
2019-02-06T23:28:08.827Z,22.97
2019-02-06T23:30:37.869Z,22.80
2019-02-06T23:33:06.848Z,24.80
2019-02-06T23:35:35.763Z,23.93
2019-02-06T23:38:04.947Z,24.00
2019-02-06T23:40:33.851Z,23.40
2019-02-06T23:43:03.207Z,25.23
2019-02-06T23:45:32.228Z,22.23
2019-02-06T23:48:01.279Z,22.87
2019-02-06T23:50:30.131Z,23.27
2019-02-06T23:52:59.036Z,22.60
2019-02-06T23:55:28.021Z,21.63
2019-02-06T23:57:56.993Z,22.20
